createdAt,value
2019-04-14T00:00:25.007Z,0.75
2019-04-14T00:03:10.823Z,0.60
2019-04-14T00:05:40.808Z,0.70
2019-04-14T00:08:09.220Z,0.60
2019-04-14T00:10:37.807Z,0.80
2019-04-14T00:13:06.817Z,0.60
2019-04-14T00:15:41.058Z,0.70
2019-04-14T00:18:05.720Z,0.50
2019-04-14T00:20:34.190Z,0.70
2019-04-14T00:23:02.261Z,0.62
2019-04-14T00:25:30.547Z,0.60
2019-04-14T00:27:58.769Z,0.75
2019-04-14T00:30:27.291Z,0.47
2019-04-14T00:33:03.885Z,0.57
2019-04-14T00:35:47.054Z,0.80
2019-04-14T00:38:20.189Z,0.50
2019-04-14T00:40:50.053Z,0.60
2019-04-14T00:43:20.015Z,0.53
2019-04-14T00:45:53.592Z,0.70
2019-04-14T00:48:22.577Z,0.95
2019-04-14T00:50:51.796Z,0.68
2019-04-14T00:53:20.735Z,0.93
2019-04-14T00:55:49.068Z,1.17
2019-04-14T00:58:17.212Z,1.00
2019-04-14T01:00:45.393Z,0.90
2019-04-14T01:03:13.475Z,1.00
2019-04-14T01:05:41.615Z,0.90
2019-04-14T01:08:09.792Z,1.00
2019-04-14T01:10:38.917Z,1.15
2019-04-14T01:13:10.749Z,0.90
2019-04-14T01:15:50.129Z,0.70
2019-04-14T01:18:07.810Z,0.80
2019-04-14T01:20:36.401Z,0.80
2019-04-14T01:23:06.223Z,1.07
2019-04-14T01:25:34.839Z,1.25
2019-04-14T01:28:02.924Z,0.88
2019-04-14T01:30:32.704Z,0.90
2019-04-14T01:33:01.114Z,1.20
2019-04-14T01:35:29.309Z,1.20
2019-04-14T01:37:57.404Z,1.60
2019-04-14T01:40:25.484Z,1.22
2019-04-14T01:42:54.828Z,1.80
2019-04-14T01:45:23.277Z,1.50
2019-04-14T01:47:51.344Z,1.07
2019-04-14T01:50:21.301Z,1.50
2019-04-14T01:53:03.430Z,1.70
2019-04-14T01:55:35.877Z,1.32
2019-04-14T01:58:09.918Z,1.32
2019-04-14T02:00:40.256Z,1.37
2019-04-14T02:03:08.531Z,2.58
2019-04-14T02:05:36.727Z,2.20
2019-04-14T02:08:04.856Z,2.05
2019-04-14T02:10:33.132Z,1.98
2019-04-14T02:13:01.182Z,1.85
2019-04-14T02:15:29.253Z,1.82
2019-04-14T02:17:57.315Z,1.40
2019-04-14T02:20:27.186Z,1.27
2019-04-14T02:22:55.573Z,1.12
2019-04-14T02:25:23.770Z,0.90
2019-04-14T02:27:51.893Z,0.62
2019-04-14T02:30:25.105Z,0.70
2019-04-14T02:35:55.925Z,0.53
2019-04-14T02:38:22.976Z,0.60
2019-04-14T02:41:05.842Z,0.50
2019-04-14T02:43:25.638Z,0.37
2019-04-14T02:48:31.020Z,0.40
2019-04-14T02:50:47.855Z,0.45
2019-04-14T02:53:16.557Z,0.68
2019-04-14T02:55:49.160Z,0.33
2019-04-14T02:58:20.166Z,0.45
2019-04-14T03:03:16.931Z,0.42
2019-04-14T03:08:16.960Z,0.57
2019-04-14T03:10:42.397Z,0.50
2019-04-14T03:13:30.790Z,0.42
2019-04-14T03:15:53.915Z,0.50
2019-04-14T03:21:03.543Z,0.40
2019-04-14T03:23:43.905Z,0.45
2019-04-14T03:26:08.313Z,0.30
2019-04-14T03:28:49.399Z,0.40
2019-04-14T03:31:49.514Z,0.70
2019-04-14T03:43:54.368Z,0.60
2019-04-14T03:46:21.336Z,0.50
2019-04-14T03:51:21.313Z,0.50
2019-04-14T03:53:46.122Z,0.65
2019-04-14T03:55:55.437Z,0.50
2019-04-14T03:58:20.461Z,0.50
2019-04-14T04:00:49.147Z,0.53
2019-04-14T04:03:17.476Z,0.60
2019-04-14T04:05:45.659Z,0.47
2019-04-14T04:08:13.795Z,0.40
2019-04-14T04:10:44.303Z,0.60
2019-04-14T04:13:12.656Z,0.53
2019-04-14T04:15:41.222Z,0.40
2019-04-14T04:18:11.329Z,0.45
2019-04-14T04:20:58.827Z,0.45
2019-04-14T04:23:48.954Z,0.40
2019-04-14T04:26:37.222Z,0.40
2019-04-14T04:29:07.052Z,0.40
2019-04-14T04:31:43.859Z,0.40
2019-04-14T04:34:14.102Z,0.40
2019-04-14T04:36:50.897Z,0.40
2019-04-14T04:39:21.417Z,0.30
2019-04-14T04:41:49.700Z,0.30
2019-04-14T04:44:18.014Z,0.80
2019-04-14T04:46:46.165Z,0.47
2019-04-14T04:49:20.488Z,0.60
2019-04-14T04:51:44.337Z,0.20
2019-04-14T04:54:12.601Z,0.65
2019-04-14T04:56:40.773Z,0.70
2019-04-14T04:59:09.807Z,0.60
2019-04-14T05:01:38.655Z,0.60
2019-04-14T05:04:06.963Z,0.70
2019-04-14T05:06:56.907Z,0.57
2019-04-14T05:09:28.078Z,0.53
2019-04-14T05:12:17.325Z,0.60
2019-04-14T05:14:47.967Z,0.42
2019-04-14T05:17:19.045Z,0.70
2019-04-14T05:19:47.590Z,0.50
2019-04-14T05:22:19.219Z,0.40
2019-04-14T05:24:46.738Z,0.60
2019-04-14T05:27:14.815Z,0.80
2019-04-14T05:29:43.084Z,0.90
2019-04-14T05:32:13.009Z,0.47
2019-04-14T05:34:41.257Z,0.70
2019-04-14T05:37:09.384Z,0.68
2019-04-14T05:39:37.536Z,0.53
2019-04-14T05:42:12.594Z,0.57
2019-04-14T05:47:04.444Z,0.50
2019-04-14T05:49:40.946Z,0.40
2019-04-14T05:52:03.351Z,0.47
2019-04-14T05:54:31.783Z,0.55
2019-04-14T05:57:00.070Z,0.50
2019-04-14T05:59:28.628Z,0.47
2019-04-14T06:01:57.000Z,0.50
2019-04-14T06:04:26.353Z,0.60
2019-04-14T06:06:54.563Z,0.50
2019-04-14T06:09:22.652Z,0.60
2019-04-14T06:11:50.710Z,0.37
2019-04-14T06:14:18.858Z,0.40
2019-04-14T06:16:46.918Z,0.50
2019-04-14T06:19:15.017Z,0.65
2019-04-14T06:21:43.101Z,0.68
2019-04-14T06:24:11.319Z,0.60
2019-04-14T06:26:39.470Z,0.70
2019-04-14T06:29:08.665Z,0.70
2019-04-14T06:31:38.378Z,0.50
2019-04-14T06:34:24.547Z,0.53
2019-04-14T06:37:11.005Z,0.53
2019-04-14T06:39:40.690Z,0.50
2019-04-14T06:42:08.777Z,0.60
2019-04-14T06:44:36.830Z,0.68
2019-04-14T06:47:04.906Z,0.50
2019-04-14T06:49:32.975Z,0.90
2019-04-14T06:52:01.105Z,0.70
2019-04-14T06:54:29.236Z,0.80
2019-04-14T06:56:57.304Z,1.10
2019-04-14T06:59:25.452Z,0.88
2019-04-14T07:01:53.500Z,0.70
2019-04-14T07:04:21.580Z,0.60
2019-04-14T07:06:51.389Z,0.70
2019-04-14T07:09:19.439Z,0.98
2019-04-14T07:11:47.637Z,1.00
2019-04-14T07:14:15.712Z,0.60
2019-04-14T07:16:43.787Z,0.80
2019-04-14T07:19:11.904Z,0.78
2019-04-14T07:21:39.948Z,0.65
2019-04-14T07:24:08.073Z,0.70
2019-04-14T07:26:36.210Z,0.70
2019-04-14T07:29:04.342Z,0.85
2019-04-14T07:31:42.957Z,0.62
2019-04-14T07:34:18.479Z,0.70
2019-04-14T07:36:54.174Z,0.70
2019-04-14T07:39:38.872Z,0.80
2019-04-14T07:42:09.668Z,0.90
2019-04-14T07:44:56.114Z,0.62
2019-04-14T07:47:29.034Z,0.80
2019-04-14T07:50:16.650Z,0.70
2019-04-14T07:52:55.710Z,1.10
2019-04-14T07:55:40.675Z,0.80
2019-04-14T07:58:13.370Z,1.40
2019-04-14T08:00:46.202Z,1.07
2019-04-14T08:03:32.376Z,0.70
2019-04-14T08:06:00.545Z,1.27
2019-04-14T08:08:28.648Z,1.35
2019-04-14T08:10:57.144Z,1.32
2019-04-14T08:13:25.194Z,1.70
2019-04-14T08:15:53.282Z,1.32
2019-04-14T08:18:21.652Z,1.70
2019-04-14T08:20:49.834Z,1.67
2019-04-14T08:23:17.969Z,1.40
2019-04-14T08:25:46.122Z,1.50
2019-04-14T08:28:14.259Z,1.60
2019-04-14T08:30:42.357Z,1.37
2019-04-14T08:33:10.503Z,1.90
2019-04-14T08:35:38.595Z,1.72
2019-04-14T08:38:06.663Z,1.55
2019-04-14T08:40:34.746Z,1.92
2019-04-14T08:43:04.462Z,2.10
2019-04-14T08:45:49.436Z,1.52
2019-04-14T08:48:19.145Z,1.82
2019-04-14T08:50:51.551Z,2.20
2019-04-14T08:53:21.265Z,1.70
2019-04-14T08:55:56.895Z,1.55
2019-04-14T08:58:38.642Z,1.40
2019-04-14T09:01:11.289Z,1.60
2019-04-14T09:03:47.107Z,1.35
2019-04-14T09:06:23.189Z,1.60
2019-04-14T09:08:55.911Z,1.57
2019-04-14T09:11:31.574Z,2.10
2019-04-14T09:13:59.673Z,1.77
2019-04-14T09:16:27.740Z,1.50
2019-04-14T09:19:07.124Z,1.70
2019-04-14T09:21:25.666Z,1.57
2019-04-14T09:23:56.808Z,1.92
2019-04-14T09:26:24.028Z,1.52
2019-04-14T09:28:52.099Z,1.55
2019-04-14T09:31:20.171Z,1.40
2019-04-14T09:33:48.347Z,1.50
2019-04-14T09:36:16.529Z,1.40
2019-04-14T09:38:44.669Z,1.75
2019-04-14T09:41:12.826Z,2.05
2019-04-14T09:43:40.926Z,1.75
2019-04-14T09:46:09.009Z,1.70
2019-04-14T09:48:37.079Z,1.90
2019-04-14T09:51:05.354Z,2.10
2019-04-14T09:53:33.905Z,2.85
2019-04-14T09:56:02.148Z,3.00
2019-04-14T09:58:30.271Z,2.60
2019-04-14T10:00:58.366Z,2.67
2019-04-14T10:03:26.468Z,2.00
2019-04-14T10:05:54.554Z,1.80
2019-04-14T10:08:22.671Z,1.30
2019-04-14T10:10:50.884Z,1.80
2019-04-14T10:13:19.115Z,2.00
2019-04-14T10:15:47.183Z,1.90
2019-04-14T10:18:15.250Z,1.77
2019-04-14T10:20:43.329Z,1.87
2019-04-14T10:23:11.470Z,1.50
2019-04-14T10:25:39.529Z,2.00
2019-04-14T10:28:07.671Z,1.80
2019-04-14T10:30:35.748Z,1.65
2019-04-14T10:33:03.840Z,1.80
2019-04-14T10:35:31.981Z,2.40
2019-04-14T10:38:00.062Z,2.33
2019-04-14T10:40:28.111Z,1.80
2019-04-14T10:42:56.242Z,2.42
2019-04-14T10:45:24.393Z,2.05
2019-04-14T10:47:52.524Z,2.62
2019-04-14T10:50:30.330Z,2.15
2019-04-14T10:52:50.387Z,2.30
2019-04-14T10:55:18.525Z,2.33
2019-04-14T10:57:46.697Z,2.35
2019-04-14T11:00:16.558Z,1.90
2019-04-14T11:02:44.757Z,1.90
2019-04-14T11:05:12.925Z,2.70
2019-04-14T11:07:40.982Z,2.90
2019-04-14T11:10:09.409Z,2.27
2019-04-14T11:12:37.719Z,1.98
2019-04-14T11:15:06.363Z,2.30
2019-04-14T11:17:34.523Z,1.87
2019-04-14T11:20:02.901Z,2.00
2019-04-14T11:22:31.013Z,2.10
2019-04-14T11:24:59.097Z,1.80
2019-04-14T11:27:28.367Z,2.20
2019-04-14T11:29:56.474Z,2.33
2019-04-14T11:32:44.789Z,2.10
2019-04-14T11:35:16.457Z,2.10
2019-04-14T11:38:02.573Z,1.87
2019-04-14T11:40:38.264Z,2.20
2019-04-14T11:43:06.346Z,2.10
2019-04-14T11:45:34.568Z,2.20
2019-04-14T11:48:02.653Z,2.17
2019-04-14T11:50:31.956Z,1.80
2019-04-14T11:53:00.018Z,1.70
2019-04-14T11:55:28.091Z,1.80
2019-04-14T11:57:56.210Z,1.75
2019-04-14T12:00:42.232Z,1.60
2019-04-14T12:03:14.863Z,1.30
2019-04-14T12:06:01.291Z,1.60
2019-04-14T12:08:47.575Z,1.42
2019-04-14T12:11:15.679Z,1.60
2019-04-14T12:13:43.751Z,1.65
2019-04-14T12:16:11.892Z,1.75
2019-04-14T12:18:39.980Z,1.80
2019-04-14T12:21:08.042Z,1.90
2019-04-14T12:23:36.237Z,1.50
2019-04-14T12:26:05.666Z,2.10
2019-04-14T12:31:08.733Z,1.80
2019-04-14T12:33:36.897Z,2.00
2019-04-14T12:36:06.755Z,1.72
2019-04-14T12:38:35.014Z,1.85
2019-04-14T12:41:04.451Z,1.77
2019-04-14T12:43:34.593Z,1.27
2019-04-14T12:46:16.250Z,1.50
2019-04-14T12:48:48.769Z,1.85
2019-04-14T12:51:24.206Z,2.05
2019-04-14T12:53:52.379Z,1.62
2019-04-14T12:56:22.152Z,1.75
2019-04-14T12:59:00.696Z,1.98
2019-04-14T13:01:45.806Z,1.52
2019-04-14T13:04:13.904Z,2.08
2019-04-14T13:06:41.969Z,1.52
2019-04-14T13:09:10.047Z,1.67
2019-04-14T13:11:38.238Z,1.80
2019-04-14T13:14:06.391Z,1.52
2019-04-14T13:16:34.479Z,1.40
2019-04-14T13:19:02.618Z,1.10
2019-04-14T13:21:30.810Z,1.37
2019-04-14T13:23:58.936Z,1.67
2019-04-14T13:26:27.107Z,1.52
2019-04-14T13:28:55.241Z,1.40
2019-04-14T13:31:23.405Z,1.25
2019-04-14T13:33:51.480Z,1.20
2019-04-14T13:36:19.574Z,1.40
2019-04-14T13:38:47.647Z,0.95
2019-04-14T13:41:15.746Z,1.00
2019-04-14T13:43:43.834Z,1.27
2019-04-14T13:46:12.045Z,0.82
2019-04-14T13:48:40.126Z,1.10
2019-04-14T13:51:08.287Z,1.10
2019-04-14T13:53:36.387Z,1.12
2019-04-14T13:56:04.609Z,1.20
2019-04-14T13:58:32.733Z,0.88
2019-04-14T14:01:00.802Z,1.00
2019-04-14T14:03:28.873Z,0.80
2019-04-14T14:05:56.966Z,0.60
2019-04-14T14:08:25.126Z,0.60
2019-04-14T14:10:54.831Z,0.62
2019-04-14T14:13:42.766Z,0.62
2019-04-14T14:16:22.121Z,0.80
2019-04-14T14:18:54.880Z,1.02
2019-04-14T14:21:27.564Z,1.10
2019-04-14T14:23:57.483Z,1.02
2019-04-14T14:26:29.888Z,0.93
2019-04-14T14:28:58.035Z,0.88
2019-04-14T14:31:26.188Z,0.80
2019-04-14T14:33:54.249Z,1.00
2019-04-14T14:36:22.759Z,0.98
2019-04-14T14:38:50.857Z,0.90
2019-04-14T14:41:20.196Z,0.90
2019-04-14T14:43:48.352Z,0.75
2019-04-14T14:46:33.173Z,0.88
2019-04-14T14:49:14.638Z,0.80
2019-04-14T14:51:44.354Z,0.70
2019-04-14T14:54:12.530Z,0.60
2019-04-14T14:56:40.713Z,0.90
2019-04-14T14:59:09.384Z,1.00
2019-04-14T15:01:37.507Z,0.75
2019-04-14T15:04:05.662Z,0.85
2019-04-14T15:06:33.833Z,1.00
2019-04-14T15:09:02.021Z,0.75
2019-04-14T15:11:32.135Z,0.90
2019-04-14T15:14:00.265Z,0.78
2019-04-14T15:16:28.407Z,0.90
2019-04-14T15:18:57.654Z,0.88
2019-04-14T15:21:25.744Z,1.10
2019-04-14T15:23:53.958Z,1.30
2019-04-14T15:26:22.158Z,1.27
2019-04-14T15:28:50.296Z,1.20
2019-04-14T15:31:18.406Z,0.93
2019-04-14T15:33:47.669Z,0.90
2019-04-14T15:36:15.813Z,0.90
2019-04-14T15:38:43.910Z,0.85
2019-04-14T15:41:12.088Z,0.90
2019-04-14T15:43:40.270Z,1.15
2019-04-14T15:46:08.407Z,1.22
2019-04-14T15:48:36.506Z,1.00
2019-04-14T15:51:04.577Z,0.90
2019-04-14T15:53:38.194Z,0.80
2019-04-14T15:56:02.918Z,0.90
2019-04-14T15:58:35.394Z,1.10
2019-04-14T16:01:17.792Z,1.00
2019-04-14T16:03:53.261Z,0.90
2019-04-14T16:06:39.561Z,0.95
2019-04-14T16:09:09.709Z,0.80
2019-04-14T16:11:53.671Z,0.60
2019-04-14T16:14:43.052Z,1.07
2019-04-14T16:17:19.871Z,0.80
2019-04-14T16:19:56.441Z,0.72
2019-04-14T16:22:24.515Z,0.98
2019-04-14T16:24:53.737Z,1.20
2019-04-14T16:27:40.375Z,1.10
2019-04-14T16:30:16.020Z,0.80
2019-04-14T16:33:02.370Z,0.90
2019-04-14T16:35:33.174Z,1.00
2019-04-14T16:38:01.306Z,0.90
2019-04-14T16:40:29.471Z,0.78
2019-04-14T16:42:57.950Z,1.00
2019-04-14T16:45:26.363Z,1.25
2019-04-14T16:47:54.580Z,1.10
2019-04-14T16:50:22.727Z,1.20
2019-04-14T16:52:58.675Z,1.07
2019-04-14T16:55:35.005Z,0.68
2019-04-14T16:58:06.177Z,0.82
2019-04-14T17:00:37.513Z,1.00
2019-04-14T17:03:05.775Z,0.90
2019-04-14T17:05:35.027Z,0.85
2019-04-14T17:08:03.246Z,0.75
2019-04-14T17:10:31.440Z,0.93
2019-04-14T17:12:59.673Z,1.00
2019-04-14T17:15:29.581Z,0.80
2019-04-14T17:18:05.085Z,1.10
2019-04-14T17:20:37.828Z,0.80
2019-04-14T17:23:24.124Z,0.88
2019-04-14T17:26:06.073Z,1.10
2019-04-14T17:28:53.577Z,0.80
2019-04-14T17:31:32.548Z,0.95
2019-04-14T17:34:02.337Z,1.00
2019-04-14T17:36:47.610Z,0.93
2019-04-14T17:39:35.349Z,0.75
2019-04-14T17:42:08.006Z,1.10
2019-04-14T17:44:49.939Z,1.37
2019-04-14T17:47:25.914Z,1.50
2019-04-14T17:49:56.551Z,1.17
2019-04-14T17:52:32.010Z,0.75
2019-04-14T17:55:14.033Z,1.00
2019-04-14T17:57:56.130Z,1.35
2019-04-14T18:00:42.573Z,0.88
2019-04-14T18:03:24.818Z,1.00
2019-04-14T18:06:00.601Z,1.10
2019-04-14T18:08:45.815Z,1.12
2019-04-14T18:11:32.387Z,1.35
2019-04-14T18:14:17.436Z,1.22
2019-04-14T18:16:53.360Z,1.02
2019-04-14T18:19:25.993Z,1.10
2019-04-14T18:21:55.193Z,1.12
2019-04-14T18:24:23.331Z,1.20
2019-04-14T18:26:51.384Z,1.20
2019-04-14T18:29:30.008Z,1.40
2019-04-14T18:32:02.304Z,1.02
2019-04-14T18:34:37.806Z,1.22
2019-04-14T18:37:07.574Z,1.05
2019-04-14T18:39:52.436Z,1.07
2019-04-14T18:42:28.251Z,1.05
2019-04-14T18:45:00.674Z,1.25
2019-04-14T18:47:46.852Z,1.00
2019-04-14T18:50:34.918Z,1.10
2019-04-14T18:53:10.733Z,1.07
2019-04-14T18:55:43.525Z,1.00
2019-04-14T18:58:28.617Z,1.27
2019-04-14T19:00:58.801Z,1.07
2019-04-14T19:03:26.952Z,1.07
2019-04-14T19:05:55.104Z,1.05
2019-04-14T19:08:23.267Z,0.98
2019-04-14T19:10:59.386Z,1.10
2019-04-14T19:13:35.416Z,1.05
2019-04-14T19:16:05.354Z,1.00
2019-04-14T19:18:35.241Z,1.10
2019-04-14T19:21:05.139Z,0.70
2019-04-14T19:23:33.292Z,0.80
2019-04-14T19:26:01.390Z,0.70
2019-04-14T19:28:29.475Z,0.72
2019-04-14T19:30:58.685Z,0.68
2019-04-14T19:33:26.798Z,0.65
2019-04-14T19:35:54.973Z,0.90
2019-04-14T19:38:23.044Z,0.80
2019-04-14T19:40:51.100Z,0.62
2019-04-14T19:43:23.821Z,0.72
2019-04-14T19:45:49.096Z,0.65
2019-04-14T19:48:17.177Z,0.60
2019-04-14T19:50:45.275Z,0.70
2019-04-14T19:53:13.418Z,0.72
2019-04-14T19:55:41.546Z,0.60
2019-04-14T19:58:09.728Z,0.88
2019-04-14T20:00:37.871Z,1.02
2019-04-14T20:03:06.117Z,1.10
2019-04-14T20:05:34.352Z,1.12
2019-04-14T20:08:02.502Z,1.30
2019-04-14T20:10:30.892Z,1.30
2019-04-14T20:12:59.121Z,0.95
2019-04-14T20:15:31.718Z,0.90
2019-04-14T20:18:04.184Z,0.80
2019-04-14T20:20:50.708Z,0.70
2019-04-14T20:23:29.534Z,1.10
2019-04-14T20:26:01.922Z,1.02
2019-04-14T20:28:31.650Z,0.70
2019-04-14T20:31:18.095Z,0.80
2019-04-14T20:33:46.346Z,1.10
2019-04-14T20:36:14.423Z,1.00
2019-04-14T20:38:42.556Z,0.93
2019-04-14T20:41:10.712Z,0.85
2019-04-14T20:43:38.862Z,0.90
2019-04-14T20:46:07.181Z,1.00
2019-04-14T20:48:35.266Z,0.90
2019-04-14T20:51:03.713Z,0.70
2019-04-14T20:53:31.817Z,1.02
2019-04-14T20:56:00.031Z,0.90
2019-04-14T20:58:28.109Z,0.98
2019-04-14T21:00:56.176Z,1.17
2019-04-14T21:03:25.914Z,0.80
2019-04-14T21:06:07.918Z,1.10
2019-04-14T21:08:54.632Z,1.02
2019-04-14T21:11:24.404Z,0.90
2019-04-14T21:13:57.183Z,1.17
2019-04-14T21:16:27.562Z,0.98
2019-04-14T21:18:57.277Z,1.05
2019-04-14T21:21:32.997Z,1.10
2019-04-14T21:24:02.897Z,1.00
2019-04-14T21:26:49.190Z,1.00
2019-04-14T21:29:21.893Z,0.93
2019-04-14T21:31:51.581Z,0.78
2019-04-14T21:34:21.323Z,0.90
2019-04-14T21:36:56.998Z,0.80
2019-04-14T21:39:32.778Z,0.80
2019-04-14T21:42:00.848Z,0.80
2019-04-14T21:44:28.940Z,0.98
2019-04-14T21:46:57.138Z,1.35
2019-04-14T21:49:25.222Z,1.30
2019-04-14T21:52:12.582Z,0.98
2019-04-14T21:54:42.345Z,0.85
2019-04-14T21:57:20.996Z,0.93
2019-04-14T22:00:09.005Z,0.80
2019-04-14T22:02:55.357Z,0.70
2019-04-14T22:05:25.180Z,0.72
2019-04-14T22:07:54.986Z,0.70
2019-04-14T22:10:24.767Z,0.85
2019-04-14T22:12:52.853Z,0.72
2019-04-14T22:15:21.736Z,0.78
2019-04-14T22:17:49.837Z,0.70
2019-04-14T22:20:17.892Z,0.68
2019-04-14T22:22:46.014Z,0.60
2019-04-14T22:25:14.068Z,0.82
2019-04-14T22:27:42.168Z,0.70
2019-04-14T22:30:10.643Z,0.95
2019-04-14T22:32:38.779Z,0.57
2019-04-14T22:35:06.925Z,0.80
2019-04-14T22:37:35.068Z,0.70
2019-04-14T22:40:04.405Z,0.80
2019-04-14T22:42:32.507Z,0.70
2019-04-14T22:45:00.680Z,0.70
2019-04-14T22:47:29.248Z,0.50
2019-04-14T22:49:57.320Z,0.80
2019-04-14T22:52:25.499Z,0.60
2019-04-14T22:54:53.590Z,0.80
2019-04-14T22:57:21.718Z,0.70
2019-04-14T22:59:49.806Z,0.70
2019-04-14T23:02:32.649Z,0.80
2019-04-14T23:05:03.452Z,0.57
2019-04-14T23:07:48.296Z,0.70
2019-04-14T23:10:26.903Z,0.60
2019-04-14T23:13:08.462Z,0.65
2019-04-14T23:15:54.515Z,0.68
2019-04-14T23:18:41.193Z,0.57
2019-04-14T23:21:13.954Z,0.50
2019-04-14T23:23:56.426Z,0.70
2019-04-14T23:26:24.717Z,0.80
2019-04-14T23:28:52.798Z,0.95
2019-04-14T23:31:20.894Z,0.70
2019-04-14T23:33:48.941Z,0.72
2019-04-14T23:36:17.101Z,0.85
2019-04-14T23:38:45.526Z,0.60
2019-04-14T23:41:13.616Z,0.70
2019-04-14T23:43:41.690Z,0.53
2019-04-14T23:46:09.768Z,0.60
2019-04-14T23:48:37.868Z,0.80
2019-04-14T23:51:06.986Z,0.55
2019-04-14T23:53:35.053Z,0.60
2019-04-14T23:56:04.199Z,0.60
2019-04-14T23:58:32.272Z,0.50
